sensor_id;sensor_type;location;lat;lon;timestamp;P1;durP1;ratioP1;P2;durP2;ratioP2
7525;SDS011;3804;50.860;6.208;2023-02-01T00:02:23;17.30;;;7.30;;
7525;SDS011;3804;50.860;6.208;2023-02-01T00:04:50;17.43;;;7.17;;
7525;SDS011;3804;50.860;6.208;2023-02-01T00:07:17;16.90;;;6.70;;
7525;SDS011;3804;50.860;6.208;2023-02-01T00:09:44;21.07;;;7.97;;
7525;SDS011;3804;50.860;6.208;2023-02-01T00:12:10;21.40;;;7.80;;
7525;SDS011;3804;50.860;6.208;2023-02-01T00:14:38;22.77;;;8.17;;
7525;SDS011;3804;50.860;6.208;2023-02-01T00:17:05;16.17;;;7.93;;
7525;SDS011;3804;50.860;6.208;2023-02-01T00:19:35;18.40;;;7.37;;
7525;SDS011;3804;50.860;6.208;2023-02-01T00:22:02;19.90;;;9.00;;
7525;SDS011;3804;50.860;6.208;2023-02-01T00:24:29;25.93;;;10.30;;
7525;SDS011;3804;50.860;6.208;2023-02-01T00:26:55;18.60;;;9.67;;
7525;SDS011;3804;50.860;6.208;2023-02-01T00:29:22;21.20;;;10.73;;
7525;SDS011;3804;50.860;6.208;2023-02-01T00:31:49;22.97;;;10.90;;
7525;SDS011;3804;50.860;6.208;2023-02-01T00:34:16;24.50;;;12.03;;
7525;SDS011;3804;50.860;6.208;2023-02-01T00:36:43;24.70;;;11.70;;
7525;SDS011;3804;50.860;6.208;2023-02-01T00:39:10;23.87;;;12.03;;
7525;SDS011;3804;50.860;6.208;2023-02-01T00:41:38;26.07;;;11.77;;
7525;SDS011;3804;50.860;6.208;2023-02-01T00:44:04;21.77;;;11.33;;
7525;SDS011;3804;50.860;6.208;2023-02-01T00:46:31;29.83;;;12.13;;
7525;SDS011;3804;50.860;6.208;2023-02-01T00:48:58;21.77;;;12.10;;
7525;SDS011;3804;50.860;6.208;2023-02-01T00:51:25;21.63;;;11.83;;
7525;SDS011;3804;50.860;6.208;2023-02-01T00:53:54;27.77;;;13.87;;
7525;SDS011;3804;50.860;6.208;2023-02-01T00:56:21;29.40;;;13.90;;
7525;SDS011;3804;50.860;6.208;2023-02-01T00:58:48;26.73;;;14.23;;
7525;SDS011;3804;50.860;6.208;2023-02-01T01:01:19;23.07;;;13.47;;
7525;SDS011;3804;50.860;6.208;2023-02-01T01:03:48;24.93;;;11.77;;
7525;SDS011;3804;50.860;6.208;2023-02-01T01:06:19;28.57;;;13.57;;
7525;SDS011;3804;50.860;6.208;2023-02-01T01:08:46;22.77;;;12.07;;
7525;SDS011;3804;50.860;6.208;2023-02-01T01:11:15;31.73;;;13.03;;
7525;SDS011;3804;50.860;6.208;2023-02-01T01:13:42;25.83;;;11.13;;
7525;SDS011;3804;50.860;6.208;2023-02-01T01:16:10;24.30;;;11.20;;
7525;SDS011;3804;50.860;6.208;2023-02-01T01:18:37;24.10;;;11.87;;
7525;SDS011;3804;50.860;6.208;2023-02-01T01:21:04;24.07;;;12.30;;
7525;SDS011;3804;50.860;6.208;2023-02-01T01:23:31;26.80;;;13.13;;
7525;SDS011;3804;50.860;6.208;2023-02-01T01:25:58;26.23;;;12.03;;
7525;SDS011;3804;50.860;6.208;2023-02-01T01:28:25;25.83;;;12.07;;
7525;SDS011;3804;50.860;6.208;2023-02-01T01:30:51;24.57;;;11.43;;
7525;SDS011;3804;50.860;6.208;2023-02-01T01:33:18;23.87;;;12.13;;
7525;SDS011;3804;50.860;6.208;2023-02-01T01:35:45;22.97;;;11.20;;
7525;SDS011;3804;50.860;6.208;2023-02-01T01:38:11;24.27;;;10.80;;
7525;SDS011;3804;50.860;6.208;2023-02-01T01:40:38;22.90;;;10.23;;
7525;SDS011;3804;50.860;6.208;2023-02-01T01:43:11;23.67;;;9.77;;
7525;SDS011;3804;50.860;6.208;2023-02-01T01:45:39;30.37;;;10.20;;
7525;SDS011;3804;50.860;6.208;2023-02-01T01:48:20;24.70;;;10.03;;
7525;SDS011;3804;50.860;6.208;2023-02-01T01:51:06;28.43;;;10.23;;
7525;SDS011;3804;50.860;6.208;2023-02-01T01:53:40;20.63;;;9.33;;
7525;SDS011;3804;50.860;6.208;2023-02-01T01:56:08;26.03;;;9.73;;
7525;SDS011;3804;50.860;6.208;2023-02-01T01:58:35;20.53;;;9.40;;
7525;SDS011;3804;50.860;6.208;2023-02-01T02:01:02;18.30;;;9.43;;
7525;SDS011;3804;50.860;6.208;2023-02-01T02:03:37;20.73;;;8.57;;
7525;SDS011;3804;50.860;6.208;2023-02-01T02:06:07;15.27;;;8.00;;
7525;SDS011;3804;50.860;6.208;2023-02-01T02:08:37;18.40;;;8.33;;
7525;SDS011;3804;50.860;6.208;2023-02-01T02:11:07;17.63;;;7.47;;
7525;SDS011;3804;50.860;6.208;2023-02-01T02:13:34;18.50;;;8.10;;
7525;SDS011;3804;50.860;6.208;2023-02-01T02:16:17;20.27;;;8.43;;
7525;SDS011;3804;50.860;6.208;2023-02-01T02:21:49;20.40;;;8.90;;
7525;SDS011;3804;50.860;6.208;2023-02-01T02:32:47;21.83;;;8.63;;
7525;SDS011;3804;50.860;6.208;2023-02-01T02:35:26;18.10;;;8.57;;
7525;SDS011;3804;50.860;6.208;2023-02-01T02:40:41;20.73;;;8.23;;
7525;SDS011;3804;50.860;6.208;2023-02-01T02:43:18;21.90;;;8.87;;
7525;SDS011;3804;50.860;6.208;2023-02-01T02:51:47;26.27;;;8.43;;
7525;SDS011;3804;50.860;6.208;2023-02-01T02:54:36;16.43;;;6.93;;
7525;SDS011;3804;50.860;6.208;2023-02-01T02:57:19;17.07;;;7.50;;
7525;SDS011;3804;50.860;6.208;2023-02-01T03:00:07;22.07;;;8.23;;
7525;SDS011;3804;50.860;6.208;2023-02-01T03:02:53;17.17;;;7.37;;
7525;SDS011;3804;50.860;6.208;2023-02-01T03:05:40;21.77;;;7.83;;
7525;SDS011;3804;50.860;6.208;2023-02-01T03:10:40;20.27;;;8.90;;
7525;SDS011;3804;50.860;6.208;2023-02-01T03:13:13;23.20;;;8.97;;
7525;SDS011;3804;50.860;6.208;2023-02-01T03:18:13;24.33;;;10.20;;
7525;SDS011;3804;50.860;6.208;2023-02-01T03:20:42;22.10;;;9.73;;
7525;SDS011;3804;50.860;6.208;2023-02-01T03:23:10;30.23;;;9.43;;
7525;SDS011;3804;50.860;6.208;2023-02-01T03:25:38;25.07;;;10.60;;
7525;SDS011;3804;50.860;6.208;2023-02-01T03:28:08;25.13;;;9.97;;
7525;SDS011;3804;50.860;6.208;2023-02-01T03:30:36;24.87;;;9.90;;
7525;SDS011;3804;50.860;6.208;2023-02-01T03:33:08;20.70;;;9.97;;
7525;SDS011;3804;50.860;6.208;2023-02-01T03:38:22;22.83;;;9.27;;
7525;SDS011;3804;50.860;6.208;2023-02-01T03:40:55;24.87;;;9.57;;
7525;SDS011;3804;50.860;6.208;2023-02-01T03:43:23;23.30;;;8.83;;
7525;SDS011;3804;50.860;6.208;2023-02-01T03:45:57;22.07;;;8.47;;
7525;SDS011;3804;50.860;6.208;2023-02-01T03:48:23;22.73;;;8.03;;
7525;SDS011;3804;50.860;6.208;2023-02-01T03:50:54;16.07;;;7.30;;
7525;SDS011;3804;50.860;6.208;2023-02-01T03:53:22;18.37;;;6.37;;
7525;SDS011;3804;50.860;6.208;2023-02-01T03:55:50;19.33;;;7.03;;
7525;SDS011;3804;50.860;6.208;2023-02-01T03:58:18;20.43;;;6.53;;
7525;SDS011;3804;50.860;6.208;2023-02-01T04:03:18;16.77;;;7.53;;
7525;SDS011;3804;50.860;6.208;2023-02-01T04:05:45;18.53;;;6.97;;
7525;SDS011;3804;50.860;6.208;2023-02-01T04:08:12;25.13;;;7.20;;
7525;SDS011;3804;50.860;6.208;2023-02-01T04:10:40;19.10;;;6.73;;
7525;SDS011;3804;50.860;6.208;2023-02-01T04:13:07;23.83;;;6.43;;
7525;SDS011;3804;50.860;6.208;2023-02-01T04:15:34;19.57;;;6.87;;
7525;SDS011;3804;50.860;6.208;2023-02-01T04:18:01;17.67;;;6.87;;
7525;SDS011;3804;50.860;6.208;2023-02-01T04:20:28;17.03;;;6.43;;
7525;SDS011;3804;50.860;6.208;2023-02-01T04:22:54;15.40;;;5.90;;
7525;SDS011;3804;50.860;6.208;2023-02-01T04:25:21;17.47;;;6.30;;
7525;SDS011;3804;50.860;6.208;2023-02-01T04:27:49;16.27;;;5.40;;
7525;SDS011;3804;50.860;6.208;2023-02-01T04:30:15;16.07;;;5.30;;
7525;SDS011;3804;50.860;6.208;2023-02-01T04:32:42;22.43;;;5.70;;
7525;SDS011;3804;50.860;6.208;2023-02-01T04:35:11;11.60;;;5.37;;
7525;SDS011;3804;50.860;6.208;2023-02-01T04:37:38;17.77;;;5.17;;
7525;SDS011;3804;50.860;6.208;2023-02-01T04:40:05;18.47;;;4.90;;
7525;SDS011;3804;50.860;6.208;2023-02-01T04:42:32;10.60;;;4.47;;
7525;SDS011;3804;50.860;6.208;2023-02-01T04:44:58;18.20;;;4.53;;
7525;SDS011;3804;50.860;6.208;2023-02-01T04:47:25;16.10;;;4.70;;
7525;SDS011;3804;50.860;6.208;2023-02-01T04:49:52;17.20;;;4.60;;
7525;SDS011;3804;50.860;6.208;2023-02-01T04:52:19;15.43;;;4.43;;
7525;SDS011;3804;50.860;6.208;2023-02-01T04:54:46;20.40;;;4.67;;
7525;SDS011;3804;50.860;6.208;2023-02-01T04:57:12;15.67;;;3.40;;
7525;SDS011;3804;50.860;6.208;2023-02-01T04:59:39;13.10;;;4.20;;
7525;SDS011;3804;50.860;6.208;2023-02-01T05:02:06;11.80;;;3.60;;
7525;SDS011;3804;50.860;6.208;2023-02-01T05:04:33;12.93;;;4.07;;
7525;SDS011;3804;50.860;6.208;2023-02-01T05:06:59;14.43;;;3.83;;
7525;SDS011;3804;50.860;6.208;2023-02-01T05:09:26;12.03;;;3.50;;
7525;SDS011;3804;50.860;6.208;2023-02-01T05:11:53;13.67;;;3.70;;
7525;SDS011;3804;50.860;6.208;2023-02-01T05:14:38;13.40;;;3.60;;
7525;SDS011;3804;50.860;6.208;2023-02-01T05:17:04;11.17;;;3.77;;
7525;SDS011;3804;50.860;6.208;2023-02-01T05:19:31;13.70;;;3.93;;
7525;SDS011;3804;50.860;6.208;2023-02-01T05:21:58;12.47;;;3.50;;
7525;SDS011;3804;50.860;6.208;2023-02-01T05:24:24;16.43;;;3.53;;
7525;SDS011;3804;50.860;6.208;2023-02-01T05:26:53;14.83;;;3.60;;
7525;SDS011;3804;50.860;6.208;2023-02-01T05:29:20;15.87;;;4.00;;
7525;SDS011;3804;50.860;6.208;2023-02-01T05:31:47;13.93;;;4.07;;
7525;SDS011;3804;50.860;6.208;2023-02-01T05:34:14;19.87;;;3.80;;
7525;SDS011;3804;50.860;6.208;2023-02-01T05:36:41;14.80;;;3.70;;
7525;SDS011;3804;50.860;6.208;2023-02-01T05:39:08;14.53;;;3.90;;
7525;SDS011;3804;50.860;6.208;2023-02-01T05:41:37;26.63;;;4.67;;
7525;SDS011;3804;50.860;6.208;2023-02-01T05:44:03;18.07;;;3.77;;
7525;SDS011;3804;50.860;6.208;2023-02-01T05:46:30;18.13;;;4.30;;
7525;SDS011;3804;50.860;6.208;2023-02-01T05:48:57;16.07;;;4.37;;
7525;SDS011;3804;50.860;6.208;2023-02-01T05:51:23;16.10;;;4.80;;
7525;SDS011;3804;50.860;6.208;2023-02-01T05:53:50;16.03;;;4.40;;
7525;SDS011;3804;50.860;6.208;2023-02-01T05:56:17;14.83;;;3.47;;
7525;SDS011;3804;50.860;6.208;2023-02-01T05:58:43;16.33;;;4.27;;
7525;SDS011;3804;50.860;6.208;2023-02-01T06:01:10;16.00;;;3.83;;
7525;SDS011;3804;50.860;6.208;2023-02-01T06:03:37;13.10;;;3.50;;
7525;SDS011;3804;50.860;6.208;2023-02-01T06:06:11;14.17;;;3.80;;
7525;SDS011;3804;50.860;6.208;2023-02-01T06:08:39;16.20;;;3.83;;
7525;SDS011;3804;50.860;6.208;2023-02-01T06:11:08;19.97;;;3.97;;
7525;SDS011;3804;50.860;6.208;2023-02-01T06:13:38;21.67;;;4.60;;
7525;SDS011;3804;50.860;6.208;2023-02-01T06:16:05;14.10;;;3.90;;
7525;SDS011;3804;50.860;6.208;2023-02-01T06:18:34;18.20;;;4.13;;
7525;SDS011;3804;50.860;6.208;2023-02-01T06:21:02;17.60;;;3.93;;
7525;SDS011;3804;50.860;6.208;2023-02-01T06:23:31;13.73;;;3.90;;
7525;SDS011;3804;50.860;6.208;2023-02-01T06:26:07;18.83;;;4.30;;
7525;SDS011;3804;50.860;6.208;2023-02-01T06:28:36;14.27;;;4.30;;
7525;SDS011;3804;50.860;6.208;2023-02-01T06:31:05;19.47;;;3.60;;
7525;SDS011;3804;50.860;6.208;2023-02-01T06:33:33;15.53;;;4.43;;
7525;SDS011;3804;50.860;6.208;2023-02-01T06:36:00;18.47;;;4.43;;
7525;SDS011;3804;50.860;6.208;2023-02-01T06:38:28;16.37;;;5.00;;
7525;SDS011;3804;50.860;6.208;2023-02-01T06:40:55;17.13;;;3.73;;
7525;SDS011;3804;50.860;6.208;2023-02-01T06:43:23;17.93;;;4.20;;
7525;SDS011;3804;50.860;6.208;2023-02-01T06:45:50;16.37;;;4.03;;
7525;SDS011;3804;50.860;6.208;2023-02-01T06:48:17;16.33;;;3.90;;
7525;SDS011;3804;50.860;6.208;2023-02-01T06:50:44;16.37;;;4.03;;
7525;SDS011;3804;50.860;6.208;2023-02-01T06:53:10;14.80;;;4.50;;
7525;SDS011;3804;50.860;6.208;2023-02-01T06:55:37;9.23;;;2.83;;
7525;SDS011;3804;50.860;6.208;2023-02-01T06:58:04;14.13;;;4.03;;
7525;SDS011;3804;50.860;6.208;2023-02-01T07:00:30;19.13;;;3.63;;
7525;SDS011;3804;50.860;6.208;2023-02-01T07:02:57;12.50;;;3.37;;
7525;SDS011;3804;50.860;6.208;2023-02-01T07:05:24;16.40;;;3.80;;
7525;SDS011;3804;50.860;6.208;2023-02-01T07:07:50;8.33;;;3.87;;
7525;SDS011;3804;50.860;6.208;2023-02-01T07:10:17;17.07;;;3.73;;
7525;SDS011;3804;50.860;6.208;2023-02-01T07:12:44;15.37;;;3.50;;
7525;SDS011;3804;50.860;6.208;2023-02-01T07:15:11;13.10;;;3.63;;
7525;SDS011;3804;50.860;6.208;2023-02-01T07:17:37;20.47;;;4.57;;
7525;SDS011;3804;50.860;6.208;2023-02-01T07:20:04;17.30;;;4.23;;
7525;SDS011;3804;50.860;6.208;2023-02-01T07:22:31;15.73;;;3.83;;
7525;SDS011;3804;50.860;6.208;2023-02-01T07:24:57;13.23;;;3.93;;
7525;SDS011;3804;50.860;6.208;2023-02-01T07:27:24;10.97;;;3.00;;
7525;SDS011;3804;50.860;6.208;2023-02-01T07:29:52;16.37;;;4.47;;
7525;SDS011;3804;50.860;6.208;2023-02-01T07:32:18;11.17;;;3.33;;
7525;SDS011;3804;50.860;6.208;2023-02-01T07:34:45;22.03;;;3.77;;
7525;SDS011;3804;50.860;6.208;2023-02-01T07:37:12;15.03;;;3.60;;
7525;SDS011;3804;50.860;6.208;2023-02-01T07:39:38;13.20;;;3.70;;
7525;SDS011;3804;50.860;6.208;2023-02-01T07:42:05;14.30;;;3.70;;
7525;SDS011;3804;50.860;6.208;2023-02-01T07:44:32;17.57;;;4.80;;
7525;SDS011;3804;50.860;6.208;2023-02-01T07:46:58;19.03;;;4.60;;
7525;SDS011;3804;50.860;6.208;2023-02-01T07:49:25;18.93;;;3.90;;
7525;SDS011;3804;50.860;6.208;2023-02-01T07:51:52;14.40;;;3.27;;
7525;SDS011;3804;50.860;6.208;2023-02-01T07:54:19;12.13;;;3.57;;
7525;SDS011;3804;50.860;6.208;2023-02-01T07:56:45;21.53;;;4.23;;
7525;SDS011;3804;50.860;6.208;2023-02-01T07:59:12;14.93;;;3.40;;
7525;SDS011;3804;50.860;6.208;2023-02-01T08:01:38;21.53;;;4.67;;
7525;SDS011;3804;50.860;6.208;2023-02-01T08:04:05;17.97;;;3.80;;
7525;SDS011;3804;50.860;6.208;2023-02-01T08:06:32;13.63;;;3.73;;
7525;SDS011;3804;50.860;6.208;2023-02-01T08:09:00;14.60;;;3.93;;
7525;SDS011;3804;50.860;6.208;2023-02-01T08:11:27;17.60;;;4.10;;
7525;SDS011;3804;50.860;6.208;2023-02-01T08:13:54;14.00;;;3.77;;
7525;SDS011;3804;50.860;6.208;2023-02-01T08:16:21;12.67;;;3.77;;
7525;SDS011;3804;50.860;6.208;2023-02-01T08:18:48;14.17;;;3.60;;
7525;SDS011;3804;50.860;6.208;2023-02-01T08:21:15;14.17;;;3.10;;
7525;SDS011;3804;50.860;6.208;2023-02-01T08:23:43;12.43;;;3.67;;
7525;SDS011;3804;50.860;6.208;2023-02-01T08:28:37;14.50;;;4.03;;
7525;SDS011;3804;50.860;6.208;2023-02-01T08:31:10;18.13;;;3.20;;
7525;SDS011;3804;50.860;6.208;2023-02-01T08:33:39;10.83;;;2.97;;
7525;SDS011;3804;50.860;6.208;2023-02-01T08:36:07;17.97;;;3.97;;
7525;SDS011;3804;50.860;6.208;2023-02-01T08:38:34;12.17;;;3.50;;
7525;SDS011;3804;50.860;6.208;2023-02-01T08:41:09;22.27;;;4.53;;
7525;SDS011;3804;50.860;6.208;2023-02-01T08:43:35;13.37;;;3.57;;
7525;SDS011;3804;50.860;6.208;2023-02-01T08:46:03;10.63;;;2.67;;
7525;SDS011;3804;50.860;6.208;2023-02-01T08:48:30;16.83;;;4.40;;
7525;SDS011;3804;50.860;6.208;2023-02-01T08:50:57;14.00;;;3.73;;
7525;SDS011;3804;50.860;6.208;2023-02-01T08:53:24;14.27;;;3.70;;
7525;SDS011;3804;50.860;6.208;2023-02-01T08:55:51;15.87;;;3.80;;
7525;SDS011;3804;50.860;6.208;2023-02-01T08:58:18;12.07;;;3.57;;
7525;SDS011;3804;50.860;6.208;2023-02-01T09:00:45;13.17;;;3.03;;
7525;SDS011;3804;50.860;6.208;2023-02-01T09:03:14;13.73;;;4.10;;
7525;SDS011;3804;50.860;6.208;2023-02-01T09:05:41;18.00;;;3.57;;
7525;SDS011;3804;50.860;6.208;2023-02-01T09:08:15;13.90;;;3.67;;
7525;SDS011;3804;50.860;6.208;2023-02-01T09:10:42;14.73;;;3.27;;
7525;SDS011;3804;50.860;6.208;2023-02-01T09:13:09;14.83;;;3.57;;
7525;SDS011;3804;50.860;6.208;2023-02-01T09:15:36;14.43;;;3.43;;
7525;SDS011;3804;50.860;6.208;2023-02-01T09:18:03;14.17;;;3.27;;
7525;SDS011;3804;50.860;6.208;2023-02-01T09:20:30;14.77;;;3.77;;
7525;SDS011;3804;50.860;6.208;2023-02-01T09:22:56;14.30;;;3.90;;
7525;SDS011;3804;50.860;6.208;2023-02-01T09:25:23;17.70;;;4.13;;
7525;SDS011;3804;50.860;6.208;2023-02-01T09:27:50;13.20;;;3.37;;
7525;SDS011;3804;50.860;6.208;2023-02-01T09:30:17;17.43;;;3.40;;
7525;SDS011;3804;50.860;6.208;2023-02-01T09:32:44;16.33;;;3.17;;
7525;SDS011;3804;50.860;6.208;2023-02-01T09:35:12;12.13;;;2.90;;
7525;SDS011;3804;50.860;6.208;2023-02-01T09:37:39;23.00;;;3.67;;
7525;SDS011;3804;50.860;6.208;2023-02-01T09:40:06;15.30;;;3.53;;
7525;SDS011;3804;50.860;6.208;2023-02-01T09:42:42;10.30;;;3.33;;
7525;SDS011;3804;50.860;6.208;2023-02-01T09:47:59;12.07;;;2.60;;
7525;SDS011;3804;50.860;6.208;2023-02-01T09:50:38;18.30;;;4.03;;
7525;SDS011;3804;50.860;6.208;2023-02-01T09:53:12;12.90;;;3.20;;
7525;SDS011;3804;50.860;6.208;2023-02-01T09:55:42;18.53;;;3.33;;
7525;SDS011;3804;50.860;6.208;2023-02-01T09:58:22;14.03;;;3.30;;
7525;SDS011;3804;50.860;6.208;2023-02-01T10:00:55;15.50;;;4.00;;
7525;SDS011;3804;50.860;6.208;2023-02-01T10:03:27;15.57;;;3.63;;
7525;SDS011;3804;50.860;6.208;2023-02-01T10:08:33;12.33;;;2.93;;
7525;SDS011;3804;50.860;6.208;2023-02-01T10:11:09;15.43;;;3.80;;
7525;SDS011;3804;50.860;6.208;2023-02-01T10:16:13;20.87;;;3.80;;
7525;SDS011;3804;50.860;6.208;2023-02-01T10:18:57;14.73;;;2.70;;
7525;SDS011;3804;50.860;6.208;2023-02-01T10:24:17;18.37;;;5.10;;
7525;SDS011;3804;50.860;6.208;2023-02-01T10:27:01;11.33;;;3.97;;
7525;SDS011;3804;50.860;6.208;2023-02-01T10:29:36;14.47;;;4.10;;
7525;SDS011;3804;50.860;6.208;2023-02-01T10:32:08;15.60;;;4.00;;
7525;SDS011;3804;50.860;6.208;2023-02-01T10:34:38;11.87;;;3.47;;
7525;SDS011;3804;50.860;6.208;2023-02-01T10:37:11;16.13;;;4.37;;
7525;SDS011;3804;50.860;6.208;2023-02-01T10:39:46;10.43;;;3.50;;
7525;SDS011;3804;50.860;6.208;2023-02-01T10:42:14;15.80;;;3.87;;
7525;SDS011;3804;50.860;6.208;2023-02-01T10:44:42;14.07;;;3.87;;
7525;SDS011;3804;50.860;6.208;2023-02-01T10:47:10;12.13;;;3.40;;
7525;SDS011;3804;50.860;6.208;2023-02-01T10:52:27;13.53;;;3.33;;
7525;SDS011;3804;50.860;6.208;2023-02-01T10:54:56;12.13;;;4.47;;
7525;SDS011;3804;50.860;6.208;2023-02-01T10:57:34;10.83;;;2.77;;
7525;SDS011;3804;50.860;6.208;2023-02-01T11:00:18;10.57;;;3.07;;
7525;SDS011;3804;50.860;6.208;2023-02-01T11:02:45;11.87;;;3.67;;
7525;SDS011;3804;50.860;6.208;2023-02-01T11:05:12;11.10;;;3.10;;
7525;SDS011;3804;50.860;6.208;2023-02-01T11:07:46;18.63;;;5.40;;
7525;SDS011;3804;50.860;6.208;2023-02-01T11:13:01;9.80;;;3.00;;
7525;SDS011;3804;50.860;6.208;2023-02-01T11:15:30;12.03;;;3.50;;
7525;SDS011;3804;50.860;6.208;2023-02-01T11:17:57;10.80;;;3.57;;
7525;SDS011;3804;50.860;6.208;2023-02-01T11:20:38;12.37;;;3.27;;
7525;SDS011;3804;50.860;6.208;2023-02-01T11:23:13;10.77;;;3.47;;
7525;SDS011;3804;50.860;6.208;2023-02-01T11:25:47;8.97;;;2.70;;
7525;SDS011;3804;50.860;6.208;2023-02-01T11:28:17;12.90;;;2.73;;
7525;SDS011;3804;50.860;6.208;2023-02-01T11:30:44;15.03;;;3.10;;
7525;SDS011;3804;50.860;6.208;2023-02-01T11:33:16;11.30;;;3.00;;
7525;SDS011;3804;50.860;6.208;2023-02-01T11:35:46;14.33;;;3.20;;
7525;SDS011;3804;50.860;6.208;2023-02-01T11:38:19;9.33;;;3.07;;
7525;SDS011;3804;50.860;6.208;2023-02-01T11:40:46;15.20;;;3.00;;
7525;SDS011;3804;50.860;6.208;2023-02-01T11:43:15;15.50;;;3.07;;
7525;SDS011;3804;50.860;6.208;2023-02-01T11:45:52;9.77;;;2.80;;
7525;SDS011;3804;50.860;6.208;2023-02-01T11:48:19;12.77;;;3.13;;
7525;SDS011;3804;50.860;6.208;2023-02-01T11:56:08;11.10;;;2.73;;
7525;SDS011;3804;50.860;6.208;2023-02-01T12:11:44;10.33;;;3.27;;
7525;SDS011;3804;50.860;6.208;2023-02-01T12:14:29;17.43;;;3.00;;
7525;SDS011;3804;50.860;6.208;2023-02-01T12:22:38;21.03;;;4.10;;
7525;SDS011;3804;50.860;6.208;2023-02-01T12:25:23;12.27;;;3.17;;
7525;SDS011;3804;50.860;6.208;2023-02-01T12:33:11;11.50;;;3.57;;
7525;SDS011;3804;50.860;6.208;2023-02-01T12:46:26;7.30;;;2.60;;
7525;SDS011;3804;50.860;6.208;2023-02-01T12:48:56;12.07;;;3.17;;
7525;SDS011;3804;50.860;6.208;2023-02-01T12:51:27;11.00;;;2.30;;
7525;SDS011;3804;50.860;6.208;2023-02-01T12:53:57;13.43;;;3.10;;
7525;SDS011;3804;50.860;6.208;2023-02-01T12:56:28;13.67;;;2.60;;
7525;SDS011;3804;50.860;6.208;2023-02-01T12:58:58;9.17;;;2.50;;
7525;SDS011;3804;50.860;6.208;2023-02-01T13:01:39;9.83;;;2.33;;
7525;SDS011;3804;50.860;6.208;2023-02-01T13:09:45;8.20;;;2.50;;
7525;SDS011;3804;50.860;6.208;2023-02-01T13:12:15;14.23;;;3.33;;
7525;SDS011;3804;50.860;6.208;2023-02-01T13:14:48;13.17;;;3.63;;
7525;SDS011;3804;50.860;6.208;2023-02-01T13:17:21;10.13;;;2.60;;
7525;SDS011;3804;50.860;6.208;2023-02-01T13:20:06;12.80;;;3.50;;
7525;SDS011;3804;50.860;6.208;2023-02-01T13:22:40;12.00;;;2.57;;
7525;SDS011;3804;50.860;6.208;2023-02-01T13:27:36;9.33;;;2.57;;
7525;SDS011;3804;50.860;6.208;2023-02-01T13:40:52;8.03;;;2.37;;
7525;SDS011;3804;50.860;6.208;2023-02-01T13:43:27;11.97;;;2.23;;
7525;SDS011;3804;50.860;6.208;2023-02-01T13:45:56;9.60;;;2.20;;
7525;SDS011;3804;50.860;6.208;2023-02-01T13:48:28;12.20;;;3.40;;
7525;SDS011;3804;50.860;6.208;2023-02-01T13:50:57;10.47;;;2.57;;
7525;SDS011;3804;50.860;6.208;2023-02-01T13:53:28;11.13;;;2.43;;
7525;SDS011;3804;50.860;6.208;2023-02-01T13:55:59;8.77;;;2.43;;
7525;SDS011;3804;50.860;6.208;2023-02-01T13:58:34;9.40;;;2.20;;
7525;SDS011;3804;50.860;6.208;2023-02-01T14:06:15;7.97;;;2.37;;
7525;SDS011;3804;50.860;6.208;2023-02-01T14:08:42;12.57;;;3.30;;
7525;SDS011;3804;50.860;6.208;2023-02-01T14:13:55;12.13;;;2.30;;
7525;SDS011;3804;50.860;6.208;2023-02-01T14:16:21;8.30;;;3.23;;
7525;SDS011;3804;50.860;6.208;2023-02-01T14:18:49;6.93;;;2.10;;
7525;SDS011;3804;50.860;6.208;2023-02-01T14:23:56;7.40;;;2.53;;
7525;SDS011;3804;50.860;6.208;2023-02-01T14:26:26;8.37;;;1.70;;
7525;SDS011;3804;50.860;6.208;2023-02-01T14:31:34;10.17;;;2.40;;
7525;SDS011;3804;50.860;6.208;2023-02-01T14:34:10;6.10;;;2.30;;
7525;SDS011;3804;50.860;6.208;2023-02-01T14:36:42;8.57;;;2.57;;
7525;SDS011;3804;50.860;6.208;2023-02-01T14:39:23;8.00;;;2.13;;
7525;SDS011;3804;50.860;6.208;2023-02-01T14:41:55;12.23;;;2.43;;
7525;SDS011;3804;50.860;6.208;2023-02-01T14:44:29;9.50;;;1.93;;
7525;SDS011;3804;50.860;6.208;2023-02-01T14:52:34;9.77;;;2.30;;
7525;SDS011;3804;50.860;6.208;2023-02-01T14:55:04;12.10;;;2.40;;
7525;SDS011;3804;50.860;6.208;2023-02-01T14:57:33;8.73;;;2.33;;
7525;SDS011;3804;50.860;6.208;2023-02-01T15:00:14;13.00;;;2.63;;
7525;SDS011;3804;50.860;6.208;2023-02-01T15:02:42;8.43;;;2.40;;
7525;SDS011;3804;50.860;6.208;2023-02-01T15:05:54;9.33;;;2.33;;
7525;SDS011;3804;50.860;6.208;2023-02-01T15:08:06;6.87;;;2.10;;
7525;SDS011;3804;50.860;6.208;2023-02-01T15:10:39;5.63;;;2.10;;
7525;SDS011;3804;50.860;6.208;2023-02-01T15:13:12;10.30;;;2.20;;
7525;SDS011;3804;50.860;6.208;2023-02-01T15:15:44;9.00;;;2.20;;
7525;SDS011;3804;50.860;6.208;2023-02-01T15:18:16;4.40;;;2.10;;
7525;SDS011;3804;50.860;6.208;2023-02-01T15:20:43;6.67;;;2.40;;
7525;SDS011;3804;50.860;6.208;2023-02-01T15:23:42;7.20;;;2.30;;
7525;SDS011;3804;50.860;6.208;2023-02-01T15:26:09;9.53;;;2.50;;
7525;SDS011;3804;50.860;6.208;2023-02-01T15:28:35;6.07;;;2.17;;
7525;SDS011;3804;50.860;6.208;2023-02-01T15:31:04;6.17;;;1.90;;
7525;SDS011;3804;50.860;6.208;2023-02-01T15:33:34;11.13;;;1.70;;
7525;SDS011;3804;50.860;6.208;2023-02-01T15:36:09;7.33;;;2.20;;
7525;SDS011;3804;50.860;6.208;2023-02-01T15:38:37;12.97;;;2.60;;
7525;SDS011;3804;50.860;6.208;2023-02-01T15:43:31;7.87;;;3.33;;
7525;SDS011;3804;50.860;6.208;2023-02-01T15:45:59;12.67;;;2.37;;
7525;SDS011;3804;50.860;6.208;2023-02-01T15:48:32;11.10;;;3.00;;
7525;SDS011;3804;50.860;6.208;2023-02-01T15:51:02;8.37;;;2.57;;
7525;SDS011;3804;50.860;6.208;2023-02-01T15:53:32;9.47;;;2.67;;
7525;SDS011;3804;50.860;6.208;2023-02-01T15:56:00;10.47;;;2.97;;
7525;SDS011;3804;50.860;6.208;2023-02-01T15:58:28;8.23;;;2.37;;
7525;SDS011;3804;50.860;6.208;2023-02-01T16:00:59;10.10;;;3.07;;
7525;SDS011;3804;50.860;6.208;2023-02-01T16:03:41;12.13;;;3.10;;
7525;SDS011;3804;50.860;6.208;2023-02-01T16:08:48;13.47;;;2.67;;
7525;SDS011;3804;50.860;6.208;2023-02-01T16:11:29;9.93;;;2.80;;
7525;SDS011;3804;50.860;6.208;2023-02-01T16:13:59;10.33;;;3.57;;
7525;SDS011;3804;50.860;6.208;2023-02-01T16:16:29;8.80;;;2.40;;
7525;SDS011;3804;50.860;6.208;2023-02-01T16:18:56;8.00;;;2.83;;
7525;SDS011;3804;50.860;6.208;2023-02-01T16:21:23;10.53;;;3.10;;
7525;SDS011;3804;50.860;6.208;2023-02-01T16:23:50;10.53;;;3.53;;
7525;SDS011;3804;50.860;6.208;2023-02-01T16:26:20;10.53;;;3.40;;
7525;SDS011;3804;50.860;6.208;2023-02-01T16:28:48;10.70;;;2.90;;
7525;SDS011;3804;50.860;6.208;2023-02-01T16:31:17;10.20;;;2.73;;
7525;SDS011;3804;50.860;6.208;2023-02-01T16:33:49;9.60;;;2.87;;
7525;SDS011;3804;50.860;6.208;2023-02-01T16:36:16;11.17;;;3.10;;
7525;SDS011;3804;50.860;6.208;2023-02-01T16:38:44;12.10;;;3.07;;
7525;SDS011;3804;50.860;6.208;2023-02-01T16:41:18;12.00;;;4.27;;
7525;SDS011;3804;50.860;6.208;2023-02-01T16:43:45;12.60;;;3.63;;
7525;SDS011;3804;50.860;6.208;2023-02-01T16:46:15;10.97;;;3.03;;
7525;SDS011;3804;50.860;6.208;2023-02-01T16:48:45;12.03;;;3.00;;
7525;SDS011;3804;50.860;6.208;2023-02-01T16:51:13;11.23;;;3.47;;
7525;SDS011;3804;50.860;6.208;2023-02-01T16:53:40;15.13;;;3.47;;
7525;SDS011;3804;50.860;6.208;2023-02-01T16:56:21;11.17;;;3.97;;
7525;SDS011;3804;50.860;6.208;2023-02-01T16:58:49;12.43;;;3.03;;
7525;SDS011;3804;50.860;6.208;2023-02-01T17:01:16;12.43;;;4.10;;
7525;SDS011;3804;50.860;6.208;2023-02-01T17:03:44;11.10;;;2.70;;
7525;SDS011;3804;50.860;6.208;2023-02-01T17:06:14;16.97;;;4.03;;
7525;SDS011;3804;50.860;6.208;2023-02-01T17:08:42;7.87;;;3.80;;
7525;SDS011;3804;50.860;6.208;2023-02-01T17:11:10;9.73;;;3.93;;
7525;SDS011;3804;50.860;6.208;2023-02-01T17:13:37;14.03;;;3.47;;
7525;SDS011;3804;50.860;6.208;2023-02-01T17:16:06;10.17;;;3.83;;
7525;SDS011;3804;50.860;6.208;2023-02-01T17:18:36;9.73;;;3.77;;
7525;SDS011;3804;50.860;6.208;2023-02-01T17:21:03;12.83;;;3.67;;
7525;SDS011;3804;50.860;6.208;2023-02-01T17:23:30;11.43;;;3.87;;
7525;SDS011;3804;50.860;6.208;2023-02-01T17:25:57;10.83;;;4.40;;
7525;SDS011;3804;50.860;6.208;2023-02-01T17:28:27;11.20;;;3.37;;
7525;SDS011;3804;50.860;6.208;2023-02-01T17:30:56;11.47;;;3.83;;